createdAt,value
2023-04-05T00:02:07.187Z,99.90
2023-04-05T00:04:52.181Z,99.90
2023-04-05T00:07:32.939Z,99.90
2023-04-05T00:10:06.619Z,99.90
2023-04-05T00:12:43.515Z,99.90
2023-04-05T00:15:22.821Z,99.90
2023-04-05T00:18:02.152Z,99.90
2023-04-05T00:20:48.563Z,99.90
2023-04-05T00:23:24.260Z,99.90
2023-04-05T00:26:02.581Z,99.90
2023-04-05T00:28:38.812Z,99.90
2023-04-05T00:31:20.871Z,99.90
2023-04-05T00:33:57.004Z,99.90
2023-04-05T00:36:35.716Z,99.90
2023-04-05T00:39:15.270Z,99.90
2023-04-05T00:41:52.867Z,99.90
2023-04-05T00:44:31.533Z,99.90
2023-04-05T00:47:15.578Z,99.90
2023-04-05T00:50:05.251Z,99.90
2023-04-05T00:52:42.765Z,99.90
2023-04-05T00:55:20.876Z,99.90
2023-04-05T00:57:57.657Z,99.90
2023-04-05T01:00:34.953Z,99.90
2023-04-05T01:03:14.183Z,99.90
2023-04-05T01:05:55.293Z,99.90
2023-04-05T01:08:40.168Z,99.90
2023-04-05T01:11:23.961Z,99.90
2023-04-05T01:14:05.746Z,99.90
2023-04-05T01:16:41.404Z,99.90
2023-04-05T01:19:19.828Z,99.90
2023-04-05T01:22:15.461Z,99.90
2023-04-05T01:25:12.399Z,99.90
2023-04-05T01:28:00.951Z,99.90
2023-04-05T01:30:43.432Z,99.90
2023-04-05T01:33:30.661Z,99.90
2023-04-05T01:36:07.394Z,99.90
2023-04-05T01:38:48.681Z,99.90
2023-04-05T01:41:26.795Z,99.90
2023-04-05T01:44:11.051Z,99.90
2023-04-05T01:46:50.913Z,99.90
2023-04-05T01:49:36.648Z,99.90
2023-04-05T01:52:10.645Z,99.90
2023-04-05T01:54:48.764Z,99.90
2023-04-05T01:57:27.106Z,99.90
2023-04-05T02:00:08.088Z,99.90
2023-04-05T02:02:49.862Z,99.90
2023-04-05T02:05:27.302Z,99.90
2023-04-05T02:08:04.428Z,99.90
2023-04-05T02:10:44.474Z,99.90
2023-04-05T02:13:26.737Z,99.90
2023-04-05T02:16:03.278Z,99.90
2023-04-05T02:18:39.623Z,99.90
2023-04-05T02:21:18.868Z,99.90
2023-04-05T02:24:00.906Z,99.90
2023-04-05T02:26:39.584Z,99.90
2023-04-05T02:29:17.078Z,99.90
2023-04-05T02:32:00.214Z,99.90
2023-04-05T02:34:43.182Z,99.90
2023-04-05T02:37:17.843Z,99.90
2023-04-05T02:39:53.618Z,99.90
2023-04-05T02:42:29.883Z,99.90
2023-04-05T02:45:05.245Z,99.90
2023-04-05T02:47:44.437Z,99.90
2023-04-05T02:50:21.917Z,99.90
2023-04-05T02:52:58.498Z,99.90
2023-04-05T02:55:35.136Z,99.90
2023-04-05T02:58:15.112Z,99.90
2023-04-05T03:00:57.960Z,99.90
2023-04-05T03:03:44.109Z,99.90
2023-04-05T03:06:29.462Z,99.90
2023-04-05T03:09:09.272Z,99.90
2023-04-05T03:11:47.910Z,99.90
2023-04-05T03:14:24.564Z,99.90
2023-04-05T03:17:03.974Z,99.90
2023-04-05T03:19:52.698Z,99.90
2023-04-05T03:22:42.239Z,99.90
2023-04-05T03:28:10.212Z,99.90
2023-04-05T03:30:55.070Z,99.90
2023-04-05T03:33:35.815Z,99.90
2023-04-05T03:36:17.019Z,99.90
2023-04-05T03:38:57.604Z,99.90
2023-04-05T03:41:41.772Z,99.90
2023-04-05T03:44:18.531Z,99.90
2023-04-05T03:46:59.897Z,99.90
2023-04-05T03:49:35.635Z,99.90
2023-04-05T03:52:14.291Z,99.90
2023-04-05T03:55:00.595Z,99.90
2023-04-05T03:57:44.663Z,99.90
2023-04-05T04:00:32.249Z,99.90
2023-04-05T04:03:22.187Z,99.90
2023-04-05T04:06:04.798Z,99.90
2023-04-05T04:08:41.384Z,99.90
2023-04-05T04:11:18.390Z,99.90
2023-04-05T04:14:01.649Z,99.90
2023-04-05T04:16:50.182Z,99.90
2023-04-05T04:19:36.112Z,99.90
2023-04-05T04:22:21.336Z,99.90
2023-04-05T04:24:57.457Z,99.90
2023-04-05T04:28:07.764Z,99.90
2023-04-05T04:31:18.892Z,99.90
2023-04-05T04:34:07.194Z,99.90
2023-04-05T04:37:02.938Z,99.90
2023-04-05T04:40:05.232Z,99.90
2023-04-05T04:43:00.308Z,99.90
2023-04-05T04:46:05.247Z,99.90
2023-04-05T04:48:51.388Z,99.90
2023-04-05T04:51:52.989Z,99.90
2023-04-05T04:54:31.244Z,99.90
2023-04-05T04:57:09.601Z,99.90
2023-04-05T04:59:45.125Z,99.90
2023-04-05T05:02:29.810Z,99.90
2023-04-05T05:05:10.958Z,99.90
2023-04-05T05:07:45.997Z,99.90
2023-04-05T05:10:26.235Z,99.90
2023-04-05T05:13:03.406Z,99.90
2023-04-05T05:15:39.621Z,99.90
2023-04-05T05:18:15.361Z,99.90
2023-04-05T05:20:55.815Z,99.90
2023-04-05T05:23:38.249Z,99.90
2023-04-05T05:26:19.109Z,99.90
2023-04-05T05:29:02.751Z,99.90
2023-04-05T05:31:45.073Z,99.90
2023-04-05T05:34:27.584Z,99.60
2023-04-05T05:37:06.419Z,98.40
2023-04-05T05:39:45.142Z,98.50
2023-04-05T05:42:22.078Z,98.30
2023-04-05T05:45:01.478Z,98.60
2023-04-05T05:47:40.987Z,98.30
2023-04-05T05:50:27.605Z,97.30
2023-04-05T05:53:15.255Z,97.20
2023-04-05T05:55:58.411Z,97.40
2023-04-05T05:58:36.978Z,96.90
2023-04-05T06:01:14.052Z,95.50
2023-04-05T06:03:53.802Z,96.00
2023-04-05T06:06:42.268Z,96.80
2023-04-05T06:09:25.886Z,96.90
2023-04-05T06:12:03.946Z,96.90
2023-04-05T06:14:41.635Z,97.10
2023-04-05T06:17:20.495Z,96.50
2023-04-05T06:20:01.759Z,95.70
2023-04-05T06:22:45.783Z,96.20
2023-04-05T06:25:24.828Z,96.50
2023-04-05T06:28:08.828Z,96.00
2023-04-05T06:30:48.009Z,95.60
2023-04-05T06:33:35.368Z,96.00
2023-04-05T06:36:13.709Z,95.90
2023-04-05T06:39:00.476Z,96.00
2023-04-05T06:41:40.021Z,96.20
2023-04-05T06:44:22.720Z,95.70
2023-04-05T06:47:00.808Z,95.30
2023-04-05T06:49:37.137Z,95.10
2023-04-05T06:52:11.821Z,94.70
2023-04-05T06:55:10.603Z,93.50
2023-04-05T06:57:53.221Z,93.80
2023-04-05T07:00:32.651Z,92.90
2023-04-05T07:03:14.181Z,91.80
2023-04-05T07:06:08.950Z,92.50
2023-04-05T07:08:50.159Z,92.10
2023-04-05T07:11:28.894Z,92.30
2023-04-05T07:14:08.863Z,92.30
2023-04-05T07:16:48.654Z,92.20
2023-04-05T07:19:26.916Z,93.00
2023-04-05T07:22:01.822Z,93.00
2023-04-05T07:24:46.933Z,93.40
2023-04-05T07:27:30.143Z,93.20
2023-04-05T07:30:10.072Z,92.60
2023-04-05T07:32:57.744Z,92.80
2023-04-05T07:35:35.875Z,92.10
2023-04-05T07:38:14.591Z,92.30
2023-04-05T07:41:05.461Z,91.60
2023-04-05T07:43:56.859Z,91.20
2023-04-05T07:46:36.857Z,91.10
2023-04-05T07:49:14.848Z,91.30
2023-04-05T07:51:56.744Z,90.60
2023-04-05T07:54:47.072Z,90.80
2023-04-05T07:57:30.702Z,90.80
2023-04-05T08:00:17.172Z,89.60
2023-04-05T08:03:01.794Z,90.50
2023-04-05T08:05:46.324Z,90.70
2023-04-05T08:08:28.189Z,91.10
2023-04-05T08:11:16.253Z,90.10
2023-04-05T08:13:55.988Z,88.70
2023-04-05T08:16:33.008Z,90.50
2023-04-05T08:19:23.062Z,89.20
2023-04-05T08:22:04.533Z,88.80
2023-04-05T08:24:45.167Z,89.30
2023-04-05T08:27:26.833Z,89.90
2023-04-05T08:30:18.138Z,88.80
2023-04-05T08:33:07.113Z,89.60
2023-04-05T08:35:45.976Z,90.70
2023-04-05T08:38:28.835Z,89.80
2023-04-05T08:41:28.413Z,90.70
2023-04-05T08:44:13.215Z,90.90
2023-04-05T08:46:51.974Z,90.30
2023-04-05T08:49:34.354Z,89.70
2023-04-05T08:52:10.992Z,89.20
2023-04-05T08:54:51.020Z,89.80
2023-04-05T08:57:44.766Z,86.00
2023-04-05T09:00:26.266Z,87.80
2023-04-05T09:03:07.195Z,85.30
2023-04-05T09:05:53.906Z,84.30
2023-04-05T09:08:32.201Z,86.00
2023-04-05T09:11:13.943Z,86.80
2023-04-05T09:13:49.779Z,87.80
2023-04-05T09:16:43.035Z,86.10
2023-04-05T09:19:31.755Z,85.30
2023-04-05T09:22:10.330Z,87.40
2023-04-05T09:24:52.173Z,88.00
2023-04-05T09:27:36.040Z,84.10
2023-04-05T09:30:44.414Z,84.70
2023-04-05T09:33:33.392Z,85.20
2023-04-05T09:36:11.431Z,83.60
2023-04-05T09:38:53.344Z,81.80
2023-04-05T09:41:45.223Z,79.10
2023-04-05T09:44:25.977Z,80.10
2023-04-05T09:47:23.145Z,81.20
2023-04-05T09:50:28.217Z,79.30
2023-04-05T09:53:23.688Z,80.90
2023-04-05T09:56:14.394Z,81.30
2023-04-05T09:59:06.364Z,81.40
2023-04-05T10:01:42.781Z,82.40
2023-04-05T10:04:25.101Z,81.50
2023-04-05T10:06:58.777Z,81.40
2023-04-05T10:09:36.636Z,81.20
2023-04-05T10:12:18.052Z,79.40
2023-04-05T10:15:00.404Z,81.10
2023-04-05T10:17:46.059Z,79.90
2023-04-05T10:20:27.393Z,79.60
2023-04-05T10:23:20.111Z,80.00
2023-04-05T10:26:01.820Z,77.60
2023-04-05T10:28:43.018Z,76.40
2023-04-05T10:31:38.097Z,77.70
2023-04-05T10:34:16.270Z,78.30
2023-04-05T10:36:54.649Z,78.90
2023-04-05T10:39:36.218Z,80.10
2023-04-05T10:42:19.988Z,79.90
2023-04-05T10:45:01.292Z,78.60
2023-04-05T10:47:44.406Z,79.40
2023-04-05T10:50:26.088Z,80.70
2023-04-05T10:53:02.665Z,79.60
2023-04-05T10:55:39.878Z,80.70
2023-04-05T10:58:20.892Z,78.90
2023-04-05T11:00:59.711Z,78.60
2023-04-05T11:03:53.108Z,77.80
2023-04-05T11:06:33.774Z,77.10
2023-04-05T11:09:22.479Z,73.90
2023-04-05T11:12:08.996Z,74.40
2023-04-05T11:14:46.571Z,74.00
2023-04-05T11:17:34.059Z,74.30
2023-04-05T11:20:11.240Z,71.60
2023-04-05T11:22:47.659Z,71.90
2023-04-05T11:25:28.632Z,74.30
2023-04-05T11:28:09.962Z,76.30
2023-04-05T11:30:58.675Z,74.60
2023-04-05T11:33:56.270Z,74.20
2023-04-05T11:36:47.107Z,72.10
2023-04-05T11:39:33.959Z,71.90
2023-04-05T11:42:22.466Z,73.90
2023-04-05T11:44:58.768Z,73.30
2023-04-05T11:47:38.929Z,72.70
2023-04-05T11:50:16.558Z,71.50
2023-04-05T11:53:11.180Z,72.20
2023-04-05T11:56:03.793Z,71.80
2023-04-05T11:58:39.535Z,71.10
2023-04-05T12:01:22.193Z,70.90
2023-04-05T12:03:59.285Z,70.10
2023-04-05T12:06:36.858Z,70.60
2023-04-05T12:09:23.846Z,72.80
2023-04-05T12:12:05.362Z,72.70
2023-04-05T12:14:44.860Z,72.40
2023-04-05T12:17:23.103Z,72.70
2023-04-05T12:20:08.697Z,69.70
2023-04-05T12:22:49.482Z,69.50
2023-04-05T12:25:34.137Z,69.30
2023-04-05T12:28:46.011Z,70.10
2023-04-05T12:31:23.018Z,70.10
2023-04-05T12:34:07.698Z,69.40
2023-04-05T12:36:53.692Z,69.70
2023-04-05T12:39:37.545Z,69.80
2023-04-05T12:42:26.691Z,69.50
2023-04-05T12:45:12.813Z,69.00
2023-04-05T12:48:01.813Z,70.20
2023-04-05T12:50:40.700Z,70.00
2023-04-05T12:53:22.694Z,70.50
2023-04-05T12:56:03.330Z,69.90
2023-04-05T12:58:43.889Z,71.00
2023-04-05T13:01:23.448Z,70.70
2023-04-05T13:04:12.648Z,70.50
2023-04-05T13:07:14.824Z,69.60
2023-04-05T13:09:48.096Z,71.10
2023-04-05T13:12:27.726Z,71.20
2023-04-05T13:15:06.592Z,71.70
2023-04-05T13:17:52.742Z,71.80
2023-04-05T13:20:28.373Z,72.10
2023-04-05T13:23:11.885Z,73.10
2023-04-05T13:25:47.236Z,74.30
2023-04-05T13:28:29.813Z,75.30
2023-04-05T13:31:19.049Z,75.50
2023-04-05T13:34:01.674Z,74.80
2023-04-05T13:36:53.400Z,74.80
2023-04-05T13:39:33.175Z,74.50
2023-04-05T13:42:11.950Z,75.20
2023-04-05T13:44:50.262Z,74.50
2023-04-05T13:47:30.414Z,74.80
2023-04-05T13:50:15.970Z,74.70
2023-04-05T13:52:59.919Z,75.10
2023-04-05T13:55:43.843Z,75.10
2023-04-05T13:58:26.103Z,74.30
2023-04-05T14:01:06.290Z,74.10
2023-04-05T14:03:43.107Z,73.40
2023-04-05T14:06:24.934Z,72.90
2023-04-05T14:09:13.413Z,72.50
2023-04-05T14:11:49.778Z,73.10
2023-04-05T14:14:38.003Z,73.70
2023-04-05T14:17:15.437Z,73.10
2023-04-05T14:20:06.534Z,72.70
2023-04-05T14:22:45.143Z,71.70
2023-04-05T14:25:31.498Z,70.90
2023-04-05T14:28:09.364Z,71.20
2023-04-05T14:30:48.209Z,71.00
2023-04-05T14:33:24.760Z,70.70
2023-04-05T14:36:03.930Z,71.10
2023-04-05T14:38:43.533Z,71.40
2023-04-05T14:41:22.337Z,71.50
2023-04-05T14:44:01.082Z,70.20
2023-04-05T14:46:39.190Z,71.00
2023-04-05T14:49:17.997Z,69.90
2023-04-05T14:51:59.124Z,70.70
2023-04-05T14:54:47.773Z,70.90
2023-04-05T14:57:23.846Z,71.20
2023-04-05T15:00:05.651Z,71.40
2023-04-05T15:02:44.518Z,71.60
2023-04-05T15:05:24.356Z,71.80
2023-04-05T15:08:04.416Z,71.80
2023-04-05T15:10:47.935Z,72.40
2023-04-05T15:13:25.830Z,73.00
2023-04-05T15:16:05.225Z,72.40
2023-04-05T15:18:43.364Z,72.30
2023-04-05T15:21:29.414Z,72.70
2023-04-05T15:24:11.617Z,72.30
2023-04-05T15:26:59.605Z,72.50
2023-04-05T15:29:43.785Z,73.30
2023-04-05T15:32:17.849Z,73.10
2023-04-05T15:34:53.816Z,73.40
2023-04-05T15:37:32.825Z,73.40
2023-04-05T15:40:10.654Z,73.60
2023-04-05T15:42:47.836Z,73.40
2023-04-05T15:45:27.945Z,73.20
2023-04-05T15:48:14.873Z,73.80
2023-04-05T15:50:51.746Z,74.50
2023-04-05T15:53:33.621Z,75.00
2023-04-05T15:56:08.778Z,75.50
2023-04-05T15:58:53.508Z,75.80
2023-04-05T16:01:37.781Z,76.10
2023-04-05T16:04:17.372Z,75.40
2023-04-05T16:07:05.279Z,75.00
2023-04-05T16:09:56.483Z,75.20
2023-04-05T16:12:42.889Z,75.10
2023-04-05T16:15:20.681Z,75.30
2023-04-05T16:17:57.706Z,75.90
2023-04-05T16:20:37.405Z,75.90
2023-04-05T16:23:18.923Z,75.90
2023-04-05T16:25:57.573Z,75.50
2023-04-05T16:28:33.749Z,75.10
2023-04-05T16:31:13.555Z,74.40
2023-04-05T16:33:56.688Z,74.30
2023-04-05T16:36:39.597Z,73.80
2023-04-05T16:39:16.386Z,74.40
2023-04-05T16:41:50.194Z,75.50
2023-04-05T16:44:36.589Z,75.40
2023-04-05T16:47:16.904Z,75.70
2023-04-05T16:49:52.384Z,76.20
2023-04-05T16:52:30.370Z,76.40
2023-04-05T16:55:08.463Z,75.90
2023-04-05T16:57:51.831Z,76.40
2023-04-05T17:00:28.541Z,77.00
2023-04-05T17:03:06.344Z,77.10
2023-04-05T17:05:46.821Z,77.70
2023-04-05T17:08:23.374Z,77.30
2023-04-05T17:10:59.660Z,77.40
2023-04-05T17:13:37.634Z,77.10
2023-04-05T17:16:11.894Z,77.70
2023-04-05T17:18:55.620Z,77.80
2023-04-05T17:21:31.607Z,78.00
2023-04-05T17:24:07.036Z,76.60
2023-04-05T17:26:43.810Z,76.00
2023-04-05T17:29:20.355Z,77.10
2023-04-05T17:32:02.889Z,77.60
2023-04-05T17:34:42.421Z,77.40
2023-04-05T17:37:22.609Z,77.80
2023-04-05T17:40:05.356Z,78.30
2023-04-05T17:42:49.789Z,78.10
2023-04-05T17:45:30.675Z,78.50
2023-04-05T17:48:11.655Z,78.60
2023-04-05T17:50:51.636Z,78.30
2023-04-05T17:53:30.083Z,78.50
2023-04-05T17:56:23.467Z,79.00
2023-04-05T17:59:09.458Z,78.40
2023-04-05T18:01:52.792Z,74.60
2023-04-05T18:04:34.391Z,74.70
2023-04-05T18:07:16.813Z,75.50
2023-04-05T18:10:01.710Z,76.20
2023-04-05T18:12:42.417Z,77.10
2023-04-05T18:15:19.791Z,76.70
2023-04-05T18:17:54.573Z,77.20
2023-04-05T18:20:28.201Z,77.20
2023-04-05T18:23:05.641Z,77.00
2023-04-05T18:25:46.006Z,77.40
2023-04-05T18:28:26.591Z,78.00
2023-04-05T18:31:20.685Z,79.00
2023-04-05T18:34:06.707Z,79.60
2023-04-05T18:36:49.527Z,80.90
2023-04-05T18:39:36.064Z,82.10
2023-04-05T18:42:10.056Z,83.70
2023-04-05T18:44:46.420Z,83.20
2023-04-05T18:47:22.452Z,83.50
2023-04-05T18:49:56.588Z,84.00
2023-04-05T18:52:38.610Z,83.90
2023-04-05T18:55:18.589Z,84.00
2023-04-05T18:57:55.266Z,84.50
2023-04-05T19:00:36.026Z,85.20
2023-04-05T19:03:15.920Z,85.10
2023-04-05T19:06:00.107Z,85.20
2023-04-05T19:08:38.687Z,85.40
2023-04-05T19:11:16.448Z,85.10
2023-04-05T19:13:54.391Z,85.40
2023-04-05T19:16:38.314Z,85.30
2023-04-05T19:19:16.570Z,85.60
2023-04-05T19:22:01.805Z,85.80
2023-04-05T19:24:37.996Z,86.30
2023-04-05T19:27:16.260Z,86.30
2023-04-05T19:29:56.236Z,86.60
2023-04-05T19:32:38.723Z,86.70
2023-04-05T19:35:15.042Z,87.00
2023-04-05T19:38:00.125Z,87.40
2023-04-05T19:40:46.257Z,87.30
2023-04-05T19:43:27.587Z,87.50
2023-04-05T19:46:07.365Z,87.60
2023-04-05T19:48:47.601Z,87.40
2023-04-05T19:51:29.797Z,87.80
2023-04-05T19:54:11.593Z,87.60
2023-04-05T19:56:52.080Z,87.60
2023-04-05T19:59:35.151Z,87.90
2023-04-05T20:02:24.204Z,87.40
2023-04-05T20:05:22.129Z,87.50
2023-04-05T20:08:08.419Z,87.80
2023-04-05T20:10:48.753Z,88.20
2023-04-05T20:13:24.397Z,88.40
2023-04-05T20:16:03.400Z,88.70
2023-04-05T20:18:54.382Z,88.90
2023-04-05T20:21:30.096Z,89.20
2023-04-05T20:24:13.133Z,89.40
2023-04-05T20:27:01.129Z,89.40
2023-04-05T20:29:37.836Z,89.50
2023-04-05T20:32:17.452Z,89.20
2023-04-05T20:35:04.203Z,89.20
2023-04-05T20:37:38.294Z,89.70
2023-04-05T20:40:29.572Z,90.00
2023-04-05T20:43:06.435Z,89.90
2023-04-05T20:45:44.449Z,89.80
2023-04-05T20:48:24.166Z,90.00
2023-04-05T20:51:10.205Z,89.90
2023-04-05T20:53:48.334Z,90.30
2023-04-05T20:56:29.722Z,90.50
2023-04-05T20:59:02.178Z,90.40
2023-04-05T21:01:41.662Z,90.20
2023-04-05T21:04:23.816Z,90.30
2023-04-05T21:07:04.855Z,90.40
2023-04-05T21:09:44.155Z,90.50
2023-04-05T21:12:32.298Z,90.60
2023-04-05T21:15:10.591Z,90.60
2023-04-05T21:18:01.742Z,90.70
2023-04-05T21:20:52.568Z,90.80
2023-04-05T21:23:34.246Z,90.70
2023-04-05T21:26:09.323Z,90.80
2023-04-05T21:28:45.923Z,90.90
2023-04-05T21:31:18.708Z,90.90
2023-04-05T21:33:57.412Z,91.00
2023-04-05T21:36:40.093Z,91.20
2023-04-05T21:39:20.648Z,91.20
2023-04-05T21:42:00.936Z,91.30
2023-04-05T21:44:34.661Z,91.20
2023-04-05T21:47:17.912Z,91.40
2023-04-05T21:49:56.335Z,91.40
2023-04-05T21:52:33.089Z,91.40
2023-04-05T21:55:14.018Z,91.40
2023-04-05T21:57:48.884Z,91.40
2023-04-05T22:00:30.458Z,91.60
2023-04-05T22:03:14.042Z,91.70
2023-04-05T22:05:51.717Z,91.70
2023-04-05T22:08:29.016Z,91.80
2023-04-05T22:11:11.453Z,91.80
2023-04-05T22:13:46.769Z,91.70
2023-04-05T22:16:26.055Z,91.70
2023-04-05T22:19:03.013Z,91.70
2023-04-05T22:21:40.879Z,91.70
2023-04-05T22:24:22.187Z,91.70
2023-04-05T22:27:03.886Z,91.80
2023-04-05T22:29:39.818Z,91.90
2023-04-05T22:32:16.344Z,92.10
2023-04-05T22:35:02.911Z,92.20
2023-04-05T22:37:39.101Z,92.30
2023-04-05T22:40:19.208Z,92.20
2023-04-05T22:43:04.315Z,92.30
2023-04-05T22:45:48.390Z,92.40
2023-04-05T22:48:28.492Z,92.50
2023-04-05T22:51:13.547Z,92.70
2023-04-05T22:53:50.343Z,92.90
2023-04-05T22:56:32.200Z,93.10
2023-04-05T22:59:11.091Z,93.20
2023-04-05T23:01:56.184Z,93.40
2023-04-05T23:04:37.726Z,93.60
2023-04-05T23:07:20.999Z,93.90
2023-04-05T23:09:58.762Z,94.10
2023-04-05T23:12:41.795Z,94.40
2023-04-05T23:15:20.762Z,94.40
2023-04-05T23:18:01.561Z,94.60
2023-04-05T23:20:40.332Z,94.60
2023-04-05T23:23:19.377Z,94.70
2023-04-05T23:25:54.900Z,94.90
2023-04-05T23:28:39.742Z,95.10
2023-04-05T23:31:14.885Z,95.20
2023-04-05T23:33:57.838Z,95.20
2023-04-05T23:36:43.084Z,95.30
2023-04-05T23:39:26.293Z,95.30
2023-04-05T23:42:03.182Z,95.30
2023-04-05T23:44:46.522Z,95.30
2023-04-05T23:47:24.323Z,95.20
2023-04-05T23:50:06.518Z,95.20
2023-04-05T23:52:53.696Z,95.40
2023-04-05T23:55:43.421Z,95.20
2023-04-05T23:58:18.147Z,95.30
